Stolt Jade — ZCSQ4 — position and weather

sailwx.info

Track history (hours):
 
Tides and Currents Weather Stations Pressure Air Temp Water Temp Dewpoint Dewpoint Depression Visibility Wind Speed Wind Dir Waves Ship Positions

Stolt Jade

Last reported at 2016-Apr-08 22:07 UTC. Time now 2016-May-02 19:18 UTC.
Position S 30°23' E 031°41'.
Warning: this ship's position is 23 days out of date.

Length 175 m; draft 9.8 m.

Type: Ship (hazmat cat C). MMSI: 319439000.

Date/timePositionNaut miles runAvg speedWind from/ knotsBaromVisibWave heightAir tempDewpointWater temp
2016-Apr-08 22:07S 30°23' E 031°41'913.7
2016-Apr-08 21:29S 30°16' E 031°48'  
2016-Apr-06 11:08S 29°18' E 031°49'813.3
2016-Apr-06 10:33S 29°23' E 031°42'1313.5
2016-Apr-06 09:33S 29°32' E 031°31'1413.8
2016-Apr-06 08:33S 29°41' E 031°20'1413.7
2016-Apr-06 07:33S 29°50' E 031°07'5 5.2
2016-Apr-06 06:32S 29°53' E 031°02'0 0.0
2016-Apr-06 05:32S 29°53' E 031°02'0 0.0
2016-Apr-06 04:32S 29°53' E 031°02'0 0.0
2016-Apr-06 03:32S 29°53' E 031°02'0 0.0
2016-Apr-06 02:32S 29°53' E 031°02'0 0.0
2016-Apr-06 01:29S 29°53' E 031°02'0 0.0
2016-Apr-06 00:23S 29°53' E 031°02'0 0.0
2016-Apr-05 23:29S 29°53' E 031°02'0 0.0
2016-Apr-05 22:32S 29°53' E 031°02'0 0.0
2016-Apr-05 21:32S 29°53' E 031°02'0 0.0
2016-Apr-05 20:32S 29°53' E 031°02'0 0.0
2016-Apr-05 19:32S 29°53' E 031°02'0 0.0
2016-Apr-05 18:32S 29°53' E 031°02'0 0.0
2016-Apr-05 17:29S 29°53' E 031°02'0 0.0
2016-Apr-05 16:32S 29°53' E 031°02'0 0.0
2016-Apr-05 15:32S 29°53' E 031°02'0 0.0
2016-Apr-05 14:32S 29°53' E 031°02'0 0.0
2016-Apr-05 13:29S 29°53' E 031°02'0 0.0
2016-Apr-05 12:32S 29°53' E 031°02'0 0.0
2016-Apr-05 11:29S 29°53' E 031°02'0 0.0
2016-Apr-05 10:32S 29°53' E 031°02'0 0.0
2016-Apr-05 09:32S 29°53' E 031°02'0 0.0
2016-Apr-05 08:32S 29°53' E 031°02'0 0.0
2016-Apr-05 07:32S 29°53' E 031°02'0 0.0
2016-Apr-05 06:32S 29°53' E 031°02'0 0.0
2016-Apr-05 05:29S 29°53' E 031°02'0 0.0
2016-Apr-05 04:32S 29°53' E 031°02'0 0.0
2016-Apr-05 03:32S 29°53' E 031°02'0 0.0
2016-Apr-05 02:32S 29°53' E 031°02'0 0.0
2016-Apr-05 01:32S 29°53' E 031°02'0 0.0
2016-Apr-05 00:32S 29°53' E 031°02'0 0.0
2016-Apr-04 23:29S 29°53' E 031°02'0 0.0
2016-Apr-04 22:32S 29°53' E 031°02'0 0.0
2016-Apr-04 21:29S 29°53' E 031°02'0 0.0
2016-Apr-04 20:32S 29°53' E 031°02'0 0.2
2016-Apr-04 19:33S 29°53' E 031°02'6 5.7
2016-Apr-04 18:33S 29°49' E 031°07'7 6.6
2016-Apr-04 17:33S 29°42' E 031°08'0 0.2
2016-Apr-04 16:31S 29°42' E 031°08'0 0.0
2016-Apr-04 15:31S 29°42' E 031°08'0 0.0
2016-Apr-04 14:31S 29°42' E 031°08'  
Track history (hours):
 
Tides and Currents Weather Stations Pressure Air Temp Water Temp Dewpoint Dewpoint Depression Visibility Wind Speed Wind Dir Waves Ship Positions

Stolt Jade

Last reported at 2016-Apr-08 22:07 UTC. Time now 2016-May-02 19:18 UTC.
Position S 30°23' E 031°41'.
Warning: this ship's position is 23 days out of date.

Length 175 m; draft 9.8 m.

Type: Ship (hazmat cat C). MMSI: 319439000.

Date/timePositionNaut miles runAvg speedWind from/ knotsBaromVisibWave heightAir tempDewpointWater temp
2016-Apr-08 22:07S 30°23' E 031°41'913.7
2016-Apr-08 21:29S 30°16' E 031°48'  
2016-Apr-06 11:08S 29°18' E 031°49'813.3
2016-Apr-06 10:33S 29°23' E 031°42'1313.5
2016-Apr-06 09:33S 29°32' E 031°31'1413.8
2016-Apr-06 08:33S 29°41' E 031°20'1413.7
2016-Apr-06 07:33S 29°50' E 031°07'5 5.2
2016-Apr-06 06:32S 29°53' E 031°02'0 0.0
2016-Apr-06 05:32S 29°53' E 031°02'0 0.0
2016-Apr-06 04:32S 29°53' E 031°02'0 0.0
2016-Apr-06 03:32S 29°53' E 031°02'0 0.0
2016-Apr-06 02:32S 29°53' E 031°02'0 0.0
2016-Apr-06 01:29S 29°53' E 031°02'0 0.0
2016-Apr-06 00:23S 29°53' E 031°02'0 0.0
2016-Apr-05 23:29S 29°53' E 031°02'0 0.0
2016-Apr-05 22:32S 29°53' E 031°02'0 0.0
2016-Apr-05 21:32S 29°53' E 031°02'0 0.0
2016-Apr-05 20:32S 29°53' E 031°02'0 0.0
2016-Apr-05 19:32S 29°53' E 031°02'0 0.0
2016-Apr-05 18:32S 29°53' E 031°02'0 0.0
2016-Apr-05 17:29S 29°53' E 031°02'0 0.0
2016-Apr-05 16:32S 29°53' E 031°02'0 0.0
2016-Apr-05 15:32S 29°53' E 031°02'0 0.0
2016-Apr-05 14:32S 29°53' E 031°02'0 0.0
2016-Apr-05 13:29S 29°53' E 031°02'0 0.0
2016-Apr-05 12:32S 29°53' E 031°02'0 0.0
2016-Apr-05 11:29S 29°53' E 031°02'0 0.0
2016-Apr-05 10:32S 29°53' E 031°02'0 0.0
2016-Apr-05 09:32S 29°53' E 031°02'0 0.0
2016-Apr-05 08:32S 29°53' E 031°02'0 0.0
2016-Apr-05 07:32S 29°53' E 031°02'0 0.0
2016-Apr-05 06:32S 29°53' E 031°02'0 0.0
2016-Apr-05 05:29S 29°53' E 031°02'0 0.0
2016-Apr-05 04:32S 29°53' E 031°02'0 0.0
2016-Apr-05 03:32S 29°53' E 031°02'0 0.0
2016-Apr-05 02:32S 29°53' E 031°02'0 0.0
2016-Apr-05 01:32S 29°53' E 031°02'0 0.0
2016-Apr-05 00:32S 29°53' E 031°02'0 0.0
2016-Apr-04 23:29S 29°53' E 031°02'0 0.0
2016-Apr-04 22:32S 29°53' E 031°02'0 0.0
2016-Apr-04 21:29S 29°53' E 031°02'0 0.0
2016-Apr-04 20:32S 29°53' E 031°02'0 0.2
2016-Apr-04 19:33S 29°53' E 031°02'6 5.7
2016-Apr-04 18:33S 29°49' E 031°07'7 6.6
2016-Apr-04 17:33S 29°42' E 031°08'0 0.2
2016-Apr-04 16:31S 29°42' E 031°08'0 0.0
2016-Apr-04 15:31S 29°42' E 031°08'0 0.0
2016-Apr-04 14:31S 29°42' E 031°08'  

Dump ship's entire track history